Time;durP1;ratioP1;P1;durP2;ratioP2;P2;SDS_P1;SDS_P2;PMS_P1;PMS_P2;Temp;Humidity;BMP_temperature;BMP_pressure;BME280_temperature;BME280_humidity;BME280_pressure;Samples;Min_cycle;Max_cycle;Signal;HPM_P1;HPM_P2
2021/09/11 00:00:09;;;;;;;22.50;14.20;;;;;;;12.84;79.32;98598.31;111820;1212;22449;-77
2021/09/11 00:02:56;;;;;;;26.30;15.20;;;;;;;12.88;79.00;98598.52;111877;1211;26333;-77
2021/09/11 00:05:23;;;;;;;27.00;13.90;;;;;;;12.90;78.77;98597.79;111645;1215;25071;-77
2021/09/11 00:07:51;;;;;;;23.70;14.30;;;;;;;12.90;78.93;98598.53;111602;1215;24140;-77
2021/09/11 00:10:32;;;;;;;22.00;12.50;;;;;;;12.90;78.82;98598.80;111880;1213;24562;-77
2021/09/11 00:12:59;;;;;;;19.70;12.90;;;;;;;12.89;78.62;98597.42;111816;1212;22455;-77
2021/09/11 00:15:40;;;;;;;18.70;12.60;;;;;;;12.88;78.83;98595.29;111802;1212;25210;-77
2021/09/11 00:18:09;;;;;;;;;;;;;;;12.87;78.78;98592.71;111871;1212;22793;-76
2021/09/11 00:20:36;;;;;;;23.60;14.30;;;;;;;12.85;79.07;98590.33;111738;1212;24212;-77
2021/09/11 00:23:09;;;;;;;18.10;13.10;;;;;;;12.83;79.03;98590.65;111882;1212;24082;-77
2021/09/11 00:25:36;;;;;;;21.80;12.10;;;;;;;12.82;79.19;98591.67;111823;1219;22466;-77
2021/09/11 00:28:04;;;;;;;21.00;12.90;;;;;;;12.84;79.22;98589.55;111730;1215;24570;-77
2021/09/11 00:30:30;;;;;;;20.20;12.80;;;;;;;12.89;79.44;98592.23;111867;1212;22548;-77
2021/09/11 00:32:58;;;;;;;23.60;14.60;;;;;;;12.91;79.15;98590.29;111890;1212;22453;-77
2021/09/11 00:35:24;;;;;;;18.00;12.50;;;;;;;12.86;78.60;98590.89;111922;1211;22501;-77
2021/09/11 00:37:51;;;;;;;25.30;14.00;;;;;;;12.84;79.02;98591.64;111858;1212;22456;-77
2021/09/11 00:40:18;;;;;;;22.30;13.70;;;;;;;12.84;78.90;98592.34;111755;1211;25136;-77
2021/09/11 00:42:48;;;;;;;20.90;12.80;;;;;;;12.83;78.90;98590.85;111660;1212;22470;-79
2021/09/11 00:45:18;;;;;;;21.90;13.80;;;;;;;12.79;78.66;98590.89;111961;1212;25082;-77
2021/09/11 00:47:46;;;;;;;24.20;14.10;;;;;;;12.78;78.85;98589.06;111864;1212;24316;-77
2021/09/11 00:50:14;;;;;;;20.50;13.30;;;;;;;12.77;79.01;98581.55;112032;1206;24108;-78
2021/09/11 00:52:43;;;;;;;24.00;13.10;;;;;;;12.73;78.92;98581.14;111864;1212;25046;-78
2021/09/11 00:55:12;;;;;;;18.20;11.30;;;;;;;12.70;78.86;98583.67;111696;1212;23527;-78
2021/09/11 00:57:49;;;;;;;18.80;12.20;;;;;;;12.69;79.06;98585.24;111662;1215;24211;-78
2021/09/11 01:00:16;;;;;;;19.40;12.70;;;;;;;12.70;78.81;98580.38;111959;1216;23762;-78
2021/09/11 01:02:57;;;;;;;22.90;12.20;;;;;;;12.70;79.13;98584.48;111833;1212;25043;-78
2021/09/11 01:05:24;;;;;;;19.60;11.60;;;;;;;12.70;78.97;98585.52;112016;1212;24067;-78
2021/09/11 01:08:05;;;;;;;17.70;11.10;;;;;;;12.71;78.95;98583.30;111780;1212;25171;-78
2021/09/11 01:10:32;;;;;;;18.50;11.80;;;;;;;12.73;79.09;98582.95;111818;1212;25277;-78
2021/09/11 01:12:59;;;;;;;20.30;11.80;;;;;;;12.76;79.07;98584.72;111994;1212;22470;-78
2021/09/11 01:15:40;;;;;;;19.70;11.80;;;;;;;12.78;78.84;98584.14;111854;1212;22457;-78
2021/09/11 01:18:09;;;;;;;21.30;11.70;;;;;;;12.74;78.50;98582.13;111750;1214;24113;-78
2021/09/11 01:20:38;;;;;;;16.50;10.10;;;;;;;12.74;78.61;98586.17;112050;1211;22470;-78
2021/09/11 01:23:06;;;;;;;17.40;10.60;;;;;;;12.73;78.47;98585.07;111958;1212;22503;-78
2021/09/11 01:25:33;;;;;;;20.90;11.50;;;;;;;12.71;78.41;98585.27;111889;1212;22442;-77
2021/09/11 01:28:00;;;;;;;19.10;11.60;;;;;;;12.70;78.53;98582.67;111763;1212;25137;-77
2021/09/11 01:30:27;;;;;;;15.00;10.60;;;;;;;12.66;78.51;98585.21;111773;1219;25157;-77
2021/09/11 01:32:54;;;;;;;16.40;9.70;;;;;;;12.64;78.52;98585.36;111857;1211;22476;-77
2021/09/11 01:35:21;;;;;;;14.80;9.60;;;;;;;12.63;78.40;98587.08;111744;1212;24157;-78
2021/09/11 01:37:48;;;;;;;15.70;10.30;;;;;;;12.62;78.27;98586.25;111836;1211;25078;-78
2021/09/11 01:40:15;;;;;;;15.40;10.00;;;;;;;12.61;78.21;98584.44;112029;1212;22623;-78
2021/09/11 01:42:42;;;;;;;13.80;9.70;;;;;;;12.58;78.19;98583.85;111577;1206;24101;-78
2021/09/11 01:45:17;;;;;;;15.30;9.60;;;;;;;12.56;78.33;98584.17;111888;1212;22466;-79
2021/09/11 01:47:46;;;;;;;14.90;8.50;;;;;;;12.57;78.20;98589.08;111946;1218;24242;-79
2021/09/11 01:50:15;;;;;;;14.10;9.70;;;;;;;12.57;78.12;98590.02;111826;1212;22556;-78
2021/09/11 01:52:43;;;;;;;18.60;10.10;;;;;;;12.57;78.19;98590.67;111956;1212;22561;-78
2021/09/11 01:55:13;;;;;;;13.80;9.10;;;;;;;12.56;77.95;98588.80;111776;1205;22933;-78
2021/09/11 01:57:42;;;;;;;19.30;10.60;;;;;;;12.52;78.17;98590.51;112103;1212;22459;-79
2021/09/11 02:00:10;;;;;;;11.50;8.40;;;;;;;12.50;77.95;98589.92;111926;1215;22499;-78
2021/09/11 02:02:38;;;;;;;14.60;9.50;;;;;;;12.48;77.92;98588.10;111814;1212;22467;-79
2021/09/11 02:05:08;;;;;;;15.70;9.70;;;;;;;12.47;77.98;98592.14;112033;1219;21747;-79
2021/09/11 02:07:35;;;;;;;15.00;9.30;;;;;;;12.47;78.00;98592.95;112053;1212;22739;-79
2021/09/11 02:10:05;;;;;;;13.70;9.30;;;;;;;12.46;78.06;98587.69;111715;1219;24821;-79
2021/09/11 02:12:32;;;;;;;15.00;9.70;;;;;;;12.43;77.80;98587.61;111725;1212;24101;-79
2021/09/11 02:14:59;;;;;;;11.90;8.30;;;;;;;12.40;77.94;98585.89;112032;1212;22460;-79
2021/09/11 02:17:26;;;;;;;12.80;7.90;;;;;;;12.39;77.59;98587.43;112083;1212;22886;-78
2021/09/11 02:19:53;;;;;;;17.10;9.40;;;;;;;12.38;78.11;98586.99;112115;1212;24191;-79
2021/09/11 02:22:20;;;;;;;14.70;8.70;;;;;;;12.39;78.18;98586.56;112108;1212;22468;-78
2021/09/11 02:24:47;;;;;;;15.60;8.90;;;;;;;12.36;78.04;98586.54;112323;1206;22454;-79
2021/09/11 02:27:14;;;;;;;12.70;8.70;;;;;;;12.30;77.70;98588.52;111924;1213;25333;-78
2021/09/11 02:29:41;;;;;;;16.60;10.40;;;;;;;12.23;77.62;98591.06;112196;1212;22493;-79
2021/09/11 02:32:08;;;;;;;14.90;10.00;;;;;;;12.14;77.26;98587.27;112117;1212;26340;-79
2021/09/11 02:34:35;;;;;;;16.00;9.70;;;;;;;12.03;77.35;98585.93;112180;1212;23745;-77
2021/09/11 02:37:02;;;;;;;17.30;11.00;;;;;;;12.00;77.72;98587.52;112102;1206;25073;-78
2021/09/11 02:39:29;;;;;;;17.40;9.90;;;;;;;11.96;77.86;98588.73;112185;1212;22457;-78
2021/09/11 02:42:11;;;;;;;14.60;8.60;;;;;;;11.93;78.12;98590.10;111932;1213;25031;-77
2021/09/11 02:44:39;;;;;;;15.70;8.90;;;;;;;11.90;78.33;98585.84;111999;1211;24110;-78
2021/09/11 02:47:06;;;;;;;12.40;8.40;;;;;;;11.90;78.12;98590.30;111909;1212;22453;-78
2021/09/11 02:49:46;;;;;;;14.10;9.10;;;;;;;11.89;78.50;98588.54;112030;1212;24104;-78
2021/09/11 02:52:13;;;;;;;13.50;8.80;;;;;;;11.90;78.60;98588.66;112080;1212;22449;-78
2021/09/11 02:54:40;;;;;;;10.20;7.50;;;;;;;11.88;78.45;98587.48;111877;1212;25070;-78
2021/09/11 02:57:07;;;;;;;11.60;8.00;;;;;;;11.87;78.43;98588.05;111864;1212;22572;-78
2021/09/11 02:59:34;;;;;;;13.20;8.00;;;;;;;11.88;78.64;98588.30;111958;1211;25191;-78
2021/09/11 03:02:15;;;;;;;14.30;8.30;;;;;;;11.89;78.51;98596.65;112072;1212;22482;-78
2021/09/11 03:04:42;;;;;;;11.50;7.90;;;;;;;11.80;78.09;98594.34;112037;1212;25384;-78
2021/09/11 03:07:09;;;;;;;19.10;9.10;;;;;;;11.64;77.58;98591.34;111912;1212;23105;-78
2021/09/11 03:09:36;;;;;;;12.30;8.20;;;;;;;11.53;78.19;98591.24;111982;1212;24100;-78
2021/09/11 03:12:03;;;;;;;15.40;8.60;;;;;;;11.48;78.65;98587.95;112084;1212;23240;-78
2021/09/11 03:14:46;;;;;;;12.20;8.00;;;;;;;11.47;78.96;98588.69;111746;1212;24076;-78
2021/09/11 03:17:27;;;;;;;13.30;7.80;;;;;;;11.47;79.06;98588.32;111840;1214;26913;-78
2021/09/11 03:19:54;;;;;;;13.80;8.60;;;;;;;11.49;78.79;98586.98;111975;1219;22480;-78
2021/09/11 03:22:21;;;;;;;16.20;7.90;;;;;;;11.49;79.30;98586.51;111826;1212;22576;-78
2021/09/11 03:24:48;;;;;;;13.00;8.00;;;;;;;11.49;78.97;98584.20;111980;1212;25128;-78
2021/09/11 03:27:15;;;;;;;13.40;7.80;;;;;;;11.48;78.99;98584.13;111974;1212;22596;-78
2021/09/11 03:29:42;;;;;;;14.00;7.90;;;;;;;11.48;79.08;98580.37;112058;1212;25395;-78
2021/09/11 03:32:23;;;;;;;15.00;8.00;;;;;;;11.48;79.39;98578.91;112017;1212;22463;-77
2021/09/11 03:34:49;;;;;;;10.80;7.50;;;;;;;11.46;79.26;98575.59;111779;1212;22624;-77
2021/09/11 03:37:30;;;;;;;11.20;7.60;;;;;;;11.46;79.25;98572.75;111890;1216;25113;-78
2021/09/11 03:40:11;;;;;;;11.40;7.50;;;;;;;11.46;79.39;98570.64;111922;1212;22466;-77
2021/09/11 03:42:38;;;;;;;12.50;7.80;;;;;;;11.47;79.36;98569.51;111927;1211;24184;-77
2021/09/11 03:45:19;;;;;;;10.30;7.80;;;;;;;11.50;79.42;98565.84;112005;1212;25093;-78
2021/09/11 03:47:46;;;;;;;11.20;6.70;;;;;;;11.51;79.51;98562.62;112049;1211;22482;-77
2021/09/11 03:50:13;;;;;;;11.10;6.70;;;;;;;11.50;79.20;98561.27;111902;1212;23804;-78
2021/09/11 03:52:40;;;;;;;13.70;7.30;;;;;;;11.50;79.03;98557.48;112304;1212;22492;-78
2021/09/11 03:55:08;;;;;;;12.50;7.70;;;;;;;11.50;79.25;98556.02;111894;1218;22523;-78
2021/09/11 03:57:35;;;;;;;11.30;6.70;;;;;;;11.50;79.52;98558.91;112004;1212;22459;-78
2021/09/11 04:00:03;;;;;;;13.50;6.90;;;;;;;11.51;79.48;98557.45;112077;1212;22476;-78
2021/09/11 04:02:38;;;;;;;12.60;7.10;;;;;;;11.48;78.92;98558.98;112255;1218;24047;-78
2021/09/11 04:05:05;;;;;;;11.60;6.80;;;;;;;11.40;78.39;98558.86;112176;1212;22467;-78
2021/09/11 04:07:32;;;;;;;10.50;7.20;;;;;;;11.36;78.88;98553.41;112134;1212;22471;-78
2021/09/11 04:09:59;;;;;;;11.20;7.20;;;;;;;11.36;79.25;98554.92;112115;1212;22472;-77
2021/09/11 04:12:26;;;;;;;11.00;6.90;;;;;;;11.36;79.22;98556.13;112037;1212;22563;-77
2021/09/11 04:14:53;;;;;;;12.90;7.40;;;;;;;11.39;79.03;98557.27;112061;1211;24076;-77
2021/09/11 04:17:34;;;;;;;9.20;6.60;;;;;;;11.40;79.42;98558.66;111986;1212;22544;-77
2021/09/11 04:20:01;;;;;;;11.30;6.90;;;;;;;11.43;79.04;98565.17;112096;1211;24212;-77
2021/09/11 04:22:28;;;;;;;11.00;7.10;;;;;;;11.43;79.22;98564.20;112128;1211;23500;-78
2021/09/11 04:24:55;;;;;;;10.30;6.90;;;;;;;11.45;79.11;98567.77;111877;1211;22571;-78
2021/09/11 04:27:22;;;;;;;10.70;6.60;;;;;;;11.45;78.95;98561.52;111982;1212;24340;-78
2021/09/11 04:29:49;;;;;;;7.90;6.10;;;;;;;11.46;79.07;98564.52;111772;1217;24289;-78
2021/09/11 04:32:16;;;;;;;10.30;6.40;;;;;;;11.47;79.11;98566.06;112096;1211;25128;-78
2021/09/11 04:34:43;;;;;;;10.80;5.80;;;;;;;11.50;78.99;98566.98;112404;1212;23517;-78
2021/09/11 04:37:10;;;;;;;11.80;6.50;;;;;;;11.51;78.86;98566.13;111916;1212;22477;-78
2021/09/11 04:39:37;;;;;;;11.10;7.10;;;;;;;11.52;78.67;98563.59;112069;1212;25062;-78
2021/09/11 04:42:17;;;;;;;9.00;6.20;;;;;;;11.54;78.83;98564.81;112007;1212;25051;-78
2021/09/11 04:44:45;;;;;;;11.70;6.00;;;;;;;11.57;78.80;98566.23;112038;1206;23660;-78
2021/09/11 04:47:12;;;;;;;9.50;5.80;;;;;;;11.62;78.77;98563.73;111956;1212;22451;-78
2021/09/11 04:49:39;;;;;;;10.10;6.20;;;;;;;11.67;78.48;98564.52;112089;1212;22469;-78
2021/09/11 04:52:20;;;;;;;15.30;6.10;;;;;;;11.72;78.52;98567.69;111873;1212;22562;-78
2021/09/11 04:54:47;;;;;;;9.70;6.30;;;;;;;11.77;78.46;98568.92;111943;1219;25184;-78
2021/09/11 04:57:13;;;;;;;10.10;5.50;;;;;;;11.80;78.34;98569.14;111809;1212;22447;-78
2021/09/11 04:59:54;;;;;;;8.20;5.50;;;;;;;11.83;78.18;98573.64;111866;1212;22672;-78
2021/09/11 05:02:21;;;;;;;9.00;6.10;;;;;;;11.84;78.05;98570.88;112161;1212;22462;-78
2021/09/11 05:04:48;;;;;;;7.90;5.70;;;;;;;11.88;78.22;98577.38;111666;1205;22470;-78
2021/09/11 05:07:15;;;;;;;10.70;5.70;;;;;;;11.92;78.25;98575.43;111949;1219;22439;-78
2021/09/11 05:09:42;;;;;;;9.50;5.90;;;;;;;11.96;78.05;98579.06;111924;1212;22453;-78
2021/09/11 05:12:09;;;;;;;12.00;5.80;;;;;;;11.99;77.82;98580.52;111679;1214;22483;-78
2021/09/11 05:14:36;;;;;;;7.20;5.40;;;;;;;12.02;77.54;98582.15;112071;1211;24184;-78
2021/09/11 05:17:03;;;;;;;9.10;5.90;;;;;;;12.06;77.43;98585.48;111994;1219;23106;-78
2021/09/11 05:19:30;;;;;;;14.20;6.50;;;;;;;12.10;77.32;98583.79;111902;1212;22579;-78
2021/09/11 05:22:11;;;;;;;10.60;6.60;;;;;;;12.15;77.39;98584.73;111731;1212;22473;-78
2021/09/11 05:24:38;;;;;;;8.20;5.80;;;;;;;12.19;77.19;98586.64;111920;1212;22453;-78
2021/09/11 05:27:19;;;;;;;11.90;6.60;;;;;;;12.25;76.89;98586.00;111918;1212;23149;-78
2021/09/11 05:29:46;;;;;;;9.30;6.10;;;;;;;12.29;77.04;98586.99;111922;1219;22466;-78
2021/09/11 05:32:13;;;;;;;7.80;5.80;;;;;;;12.32;76.41;98588.17;111941;1211;25135;-78
2021/09/11 05:34:40;;;;;;;10.30;6.00;;;;;;;12.37;76.76;98591.84;111950;1212;22486;-78
2021/09/11 05:37:07;;;;;;;8.80;5.30;;;;;;;12.43;76.46;98592.69;112053;1219;25060;-78
2021/09/11 05:39:34;;;;;;;10.30;6.00;;;;;;;12.49;76.36;98589.37;112000;1212;25081;-78
2021/09/11 05:42:01;;;;;;;9.00;5.80;;;;;;;12.53;76.05;98587.11;111900;1212;22521;-78
2021/09/11 05:44:28;;;;;;;14.40;6.50;;;;;;;12.56;76.00;98588.25;111710;1213;22466;-78
2021/09/11 05:47:09;;;;;;;8.50;5.90;;;;;;;12.62;76.15;98591.82;111961;1211;22496;-78
2021/09/11 05:49:36;;;;;;;11.40;6.20;;;;;;;12.68;75.91;98592.23;112048;1219;22575;-78
2021/09/11 05:52:03;;;;;;;9.40;5.80;;;;;;;12.74;75.51;98588.69;111941;1212;22465;-78
2021/09/11 05:54:30;;;;;;;10.50;6.10;;;;;;;12.82;75.40;98587.73;111973;1211;22452;-78
2021/09/11 05:56:57;;;;;;;10.20;6.50;;;;;;;12.87;75.07;98588.18;111924;1215;22824;-78
2021/09/11 05:59:24;;;;;;;12.00;5.80;;;;;;;12.93;74.95;98592.34;111945;1212;23915;-79
2021/09/11 06:01:51;;;;;;;11.00;5.80;;;;;;;12.96;74.75;98590.45;112717;1206;22427;-78
2021/09/11 06:04:18;;;;;;;11.20;5.50;;;;;;;13.01;74.51;98592.14;112483;1212;23136;-78
2021/09/11 06:06:44;;;;;;;7.90;5.20;;;;;;;13.04;74.46;98590.54;112268;1211;22557;-78
2021/09/11 06:09:11;;;;;;;9.00;5.50;;;;;;;13.08;74.30;98590.25;111912;1211;22569;-78
2021/09/11 06:11:53;;;;;;;9.20;6.40;;;;;;;13.15;74.24;98591.19;111832;1212;23784;-78
2021/09/11 06:14:20;;;;;;;9.10;5.70;;;;;;;13.20;74.50;98589.81;111894;1212;25159;-78
2021/09/11 06:16:47;;;;;;;10.20;6.50;;;;;;;13.25;74.81;98587.29;111929;1212;24101;-78
2021/09/11 06:19:14;;;;;;;8.90;5.70;;;;;;;13.31;74.96;98589.12;112028;1212;25022;-78
2021/09/11 06:21:41;;;;;;;11.10;6.00;;;;;;;13.38;75.06;98594.06;111942;1212;23782;-78
2021/09/11 06:24:08;;;;;;;9.70;5.70;;;;;;;13.43;75.22;98592.80;111743;1216;22457;-78
2021/09/11 06:26:35;;;;;;;9.10;5.90;;;;;;;13.50;75.72;98598.55;112028;1219;25300;-78
2021/09/11 06:29:02;;;;;;;9.30;6.10;;;;;;;13.59;75.69;98598.77;112292;1212;22474;-78
2021/09/11 06:31:29;;;;;;;9.10;5.70;;;;;;;13.68;75.99;98593.91;111944;1212;22477;-78
2021/09/11 06:33:56;;;;;;;8.60;5.20;;;;;;;13.77;75.92;98593.45;111937;1213;25138;-78
2021/09/11 06:36:23;;;;;;;10.70;6.10;;;;;;;13.85;75.39;98593.65;111805;1219;22462;-78
2021/09/11 06:38:50;;;;;;;7.80;5.20;;;;;;;13.94;75.36;98598.33;111945;1212;22450;-79
2021/09/11 06:41:17;;;;;;;7.60;5.50;;;;;;;14.04;74.80;98598.28;111615;1219;22595;-78
2021/09/11 06:43:44;;;;;;;12.50;6.60;;;;;;;14.15;74.68;98598.19;112063;1207;24085;-78
2021/09/11 06:46:10;;;;;;;13.10;6.80;;;;;;;14.26;74.95;98599.29;112119;1212;22467;-78
2021/09/11 06:48:37;;;;;;;14.70;6.50;;;;;;;14.37;74.90;98598.36;111973;1212;25234;-78
2021/09/11 06:51:05;;;;;;;9.70;6.20;;;;;;;14.46;74.49;98599.29;112272;1212;22463;-78
2021/09/11 06:53:32;;;;;;;8.40;5.60;;;;;;;14.56;73.77;98597.37;112047;1212;25199;-79
2021/09/11 06:55:59;;;;;;;9.50;6.20;;;;;;;14.65;73.26;98596.77;111994;1212;24203;-78
2021/09/11 06:58:26;;;;;;;10.80;5.90;;;;;;;14.73;73.08;98600.07;111940;1212;25517;-78
2021/09/11 07:00:53;;;;;;;6.80;4.90;;;;;;;14.83;72.48;98602.14;111863;1219;22513;-78
2021/09/11 07:03:34;;;;;;;7.30;5.20;;;;;;;14.95;71.98;98601.95;111667;1212;22575;-78
2021/09/11 07:06:05;;;;;;;6.10;5.20;;;;;;;15.05;71.26;98606.09;112012;1212;24172;-78
2021/09/11 07:08:34;;;;;;;8.40;5.10;;;;;;;15.14;70.53;98602.11;111995;1216;24085;-78
2021/09/11 07:11:01;;;;;;;8.50;4.90;;;;;;;15.24;70.20;98598.02;111955;1212;22577;-78
2021/09/11 07:13:28;;;;;;;5.20;3.90;;;;;;;15.33;70.10;98596.38;111939;1213;22454;-79
2021/09/11 07:16:09;;;;;;;7.20;5.10;;;;;;;15.42;69.49;98601.54;112048;1212;25152;-79
2021/09/11 07:18:36;;;;;;;7.80;5.20;;;;;;;15.50;69.39;98600.73;112022;1212;22695;-79
2021/09/11 07:21:17;;;;;;;7.50;5.00;;;;;;;15.59;69.31;98600.73;111898;1213;24216;-79
2021/09/11 07:23:44;;;;;;;11.70;5.80;;;;;;;15.66;69.19;98601.23;111689;1213;24164;-79
2021/09/11 07:26:25;;;;;;;10.00;5.80;;;;;;;15.74;69.28;98603.16;112232;1212;24220;-79
2021/09/11 07:28:52;;;;;;;17.90;5.40;;;;;;;15.83;69.16;98596.42;111955;1219;22529;-79
2021/09/11 07:31:19;;;;;;;8.70;4.80;;;;;;;15.92;68.79;98597.34;112020;1219;22470;-79
2021/09/11 07:33:46;;;;;;;7.00;5.20;;;;;;;16.04;68.72;98597.48;111866;1212;25246;-79
2021/09/11 07:36:13;;;;;;;7.50;5.10;;;;;;;16.16;68.95;98597.86;112070;1219;22873;-79
2021/09/11 07:38:40;;;;;;;9.90;5.10;;;;;;;16.28;68.30;98599.73;111725;1212;25046;-79
2021/09/11 07:41:21;;;;;;;9.10;5.00;;;;;;;16.40;68.18;98602.78;111849;1213;22499;-79
2021/09/11 07:43:48;;;;;;;9.30;5.60;;;;;;;16.51;67.91;98603.85;111946;1212;22478;-79
2021/09/11 07:46:15;;;;;;;10.00;5.10;;;;;;;16.60;67.78;98600.95;111996;1211;22459;-79
2021/09/11 07:48:42;;;;;;;9.30;5.50;;;;;;;16.71;67.23;98603.27;111933;1212;25854;-79
2021/09/11 07:51:22;;;;;;;9.70;5.30;;;;;;;16.84;67.18;98608.02;111973;1212;25116;-79
2021/09/11 07:53:49;;;;;;;8.40;5.40;;;;;;;16.95;66.74;98613.70;111901;1213;22482;-79
2021/09/11 07:56:19;;;;;;;8.50;4.90;;;;;;;17.06;66.34;98612.10;111885;1212;24088;-79
2021/09/11 07:59:00;;;;;;;9.20;5.90;;;;;;;17.16;65.56;98609.30;111772;1213;22474;-79
2021/09/11 08:01:27;;;;;;;6.70;4.90;;;;;;;17.29;66.19;98614.72;112109;1211;22851;-79
2021/09/11 08:03:54;;;;;;;8.50;5.30;;;;;;;17.41;66.50;98611.92;111943;1213;24100;-79
2021/09/11 08:06:34;;;;;;;7.80;5.00;;;;;;;17.54;66.01;98606.99;111887;1218;22464;-79
2021/09/11 08:09:15;;;;;;;9.20;4.80;;;;;;;17.67;65.27;98609.16;111697;1213;22860;-79
2021/09/11 08:11:42;;;;;;;7.70;5.50;;;;;;;17.77;64.67;98606.14;111908;1212;24141;-79
2021/09/11 08:14:10;;;;;;;6.90;4.70;;;;;;;17.90;64.49;98606.66;111982;1209;22456;-79
2021/09/11 08:16:37;;;;;;;10.70;5.20;;;;;;;18.02;64.08;98603.69;111934;1211;22439;-79
2021/09/11 08:19:04;;;;;;;8.40;4.60;;;;;;;18.15;63.66;98604.89;111941;1219;24131;-79
2021/09/11 08:21:32;;;;;;;8.70;5.10;;;;;;;18.29;63.49;98602.81;112084;1219;24114;-79
2021/09/11 08:23:59;;;;;;;6.70;4.80;;;;;;;18.42;63.16;98603.50;112083;1211;25043;-79
2021/09/11 08:26:25;;;;;;;10.80;4.80;;;;;;;18.55;63.13;98597.62;112015;1211;22861;-79
2021/09/11 08:29:06;;;;;;;10.20;4.60;;;;;;;18.70;62.78;98596.66;111785;1213;22445;-78
2021/09/11 08:31:47;;;;;;;7.10;4.90;;;;;;;18.86;62.28;98599.73;111761;1213;25511;-78
2021/09/11 08:34:14;;;;;;;8.10;4.50;;;;;;;19.00;61.84;98598.79;111616;1215;22614;-77
2021/09/11 08:36:41;;;;;;;8.80;4.10;;;;;;;19.12;61.62;98596.67;111734;1213;24123;-77
2021/09/11 08:39:08;;;;;;;7.90;4.20;;;;;;;19.25;61.13;98592.85;111858;1213;25156;-77
2021/09/11 08:41:36;;;;;;;4.80;3.80;;;;;;;19.37;60.97;98593.05;111855;1212;24067;-77
2021/09/11 08:44:04;;;;;;;5.90;3.90;;;;;;;19.51;60.85;98591.62;111779;1213;22453;-77
2021/09/11 08:46:31;;;;;;;7.50;4.10;;;;;;;19.66;60.64;98593.48;111864;1212;24277;-77
2021/09/11 08:48:58;;;;;;;7.30;4.00;;;;;;;19.81;60.24;98597.35;111867;1215;25275;-77
2021/09/11 08:51:39;;;;;;;7.10;4.10;;;;;;;19.97;58.89;98595.63;111785;1213;23976;-77
2021/09/11 08:54:06;;;;;;;6.20;3.80;;;;;;;20.13;58.84;98591.64;111844;1212;24179;-77
2021/09/11 08:56:45;;;;;;;4.80;3.60;;;;;;;20.27;58.08;98587.83;111696;1212;25377;-77
2021/09/11 08:59:14;;;;;;;6.60;3.70;;;;;;;20.42;57.79;98585.94;111981;1218;24103;-77
2021/09/11 09:02:09;;;;;;;4.70;3.30;;;;;;;20.59;56.81;98581.58;111797;1213;24081;-77
2021/09/11 09:04:56;;;;;;;4.50;3.30;;;;;;;20.74;55.09;98574.80;111655;1212;22451;-77
2021/09/11 09:07:32;;;;;;;7.20;3.90;;;;;;;20.89;53.65;98566.91;111803;1211;25083;-79
2021/09/11 09:10:03;;;;;;;6.50;3.70;;;;;;;21.03;53.84;98568.33;111920;1211;22935;-76
2021/09/11 09:12:35;;;;;;;6.80;3.60;;;;;;;21.17;52.97;98568.95;112039;1211;22745;-77
2021/09/11 09:15:20;;;;;;;6.00;3.60;;;;;;;21.32;51.76;98569.26;111840;1212;22462;-76
2021/09/11 09:17:49;;;;;;;8.00;3.70;;;;;;;21.44;51.20;98564.32;111924;1216;24118;-76
2021/09/11 09:20:24;;;;;;;6.10;3.50;;;;;;;21.58;51.27;98564.83;112050;1212;22470;-76
2021/09/11 09:22:59;;;;;;;5.80;3.60;;;;;;;21.73;51.26;98565.13;111870;1213;25052;-76
2021/09/11 09:25:32;;;;;;;5.90;3.50;;;;;;;21.88;50.72;98562.41;111922;1219;22445;-76
2021/09/11 09:28:03;;;;;;;4.70;3.40;;;;;;;22.01;50.55;98564.45;111827;1219;24054;-76
2021/09/11 09:30:49;;;;;;;5.80;3.50;;;;;;;22.17;50.64;98563.73;111719;1219;22477;-77
2021/09/11 09:33:38;;;;;;;5.80;3.70;;;;;;;22.34;50.68;98562.76;111766;1219;23397;-77
2021/09/11 09:36:19;;;;;;;8.60;3.60;;;;;;;22.47;49.20;98561.41;111842;1213;24082;-77
2021/09/11 09:38:46;;;;;;;10.40;3.00;;;;;;;22.57;49.35;98561.52;112014;1212;23164;-77
2021/09/11 09:41:13;;;;;;;5.20;3.10;;;;;;;22.67;47.96;98557.64;111981;1219;22458;-77
2021/09/11 09:43:43;;;;;;;4.50;3.20;;;;;;;22.80;48.54;98564.70;111886;1213;22558;-77
2021/09/11 09:46:11;;;;;;;4.80;3.40;;;;;;;22.94;47.70;98558.97;111639;1214;25144;-77
2021/09/11 09:48:59;;;;;;;5.60;3.30;;;;;;;23.07;47.07;98559.25;111607;1215;22526;-77
2021/09/11 09:51:26;;;;;;;3.90;3.50;;;;;;;23.19;46.31;98560.50;111794;1209;25138;-77
2021/09/11 09:54:07;;;;;;;4.00;3.20;;;;;;;23.33;46.99;98557.46;111712;1212;24107;-77
2021/09/11 09:56:49;;;;;;;6.10;3.70;;;;;;;23.48;46.41;98552.30;112033;1216;22460;-77
2021/09/11 09:59:16;;;;;;;6.10;3.60;;;;;;;23.61;45.81;98554.31;111890;1213;22592;-77
2021/09/11 10:01:44;;;;;;;5.10;3.30;;;;;;;23.74;44.41;98551.83;111858;1210;22486;-77
2021/09/11 10:04:15;;;;;;;5.90;3.40;;;;;;;23.85;44.85;98554.48;111957;1213;22494;-77
2021/09/11 10:06:50;;;;;;;5.90;3.60;;;;;;;23.97;43.73;98551.68;111856;1216;22472;-77
2021/09/11 10:09:23;;;;;;;5.00;3.40;;;;;;;24.09;44.51;98550.13;111871;1212;22451;-76
2021/09/11 10:11:51;;;;;;;5.30;3.50;;;;;;;24.23;44.33;98547.77;111981;1212;25128;-77
2021/09/11 10:14:33;;;;;;;7.40;3.70;;;;;;;24.34;43.24;98551.92;111851;1216;22487;-77
2021/09/11 10:17:03;;;;;;;3.70;2.60;;;;;;;24.45;41.74;98547.14;111890;1213;24053;-77
2021/09/11 10:19:36;;;;;;;4.70;3.10;;;;;;;24.52;42.11;98546.50;111912;1211;22474;-77
2021/09/11 10:22:19;;;;;;;6.50;3.40;;;;;;;24.63;42.13;98548.82;112028;1211;22464;-77
2021/09/11 10:25:03;;;;;;;5.00;3.00;;;;;;;24.76;41.65;98546.61;111877;1213;26288;-77
2021/09/11 10:27:38;;;;;;;6.20;3.20;;;;;;;24.87;41.64;98545.04;112059;1209;25249;-77
2021/09/11 10:30:19;;;;;;;5.70;3.50;;;;;;;25.00;42.01;98546.02;111830;1216;25204;-77
2021/09/11 10:32:49;;;;;;;7.30;3.50;;;;;;;25.12;41.36;98544.98;111881;1219;22472;-77
2021/09/11 10:35:21;;;;;;;6.50;3.40;;;;;;;25.24;41.44;98544.02;111932;1216;22458;-77
2021/09/11 10:37:58;;;;;;;4.80;3.60;;;;;;;25.33;40.60;98545.17;111804;1219;22489;-78
2021/09/11 10:40:31;;;;;;;7.40;3.30;;;;;;;25.40;39.57;98538.80;111858;1216;25179;-76
2021/09/11 10:43:21;;;;;;;5.90;3.00;;;;;;;25.40;39.56;98538.73;111800;1219;22446;-77
2021/09/11 10:45:53;;;;;;;5.40;3.50;;;;;;;25.43;39.13;98540.27;111859;1211;25184;-77
2021/09/11 10:48:41;;;;;;;7.10;3.00;;;;;;;25.48;39.10;98541.11;112032;1216;24097;-77
2021/09/11 10:51:33;;;;;;;5.60;2.90;;;;;;;25.54;38.42;98543.78;111860;1211;22455;-77
2021/09/11 10:54:04;;;;;;;6.10;3.40;;;;;;;25.65;39.28;98537.70;111892;1211;22479;-77
2021/09/11 10:56:52;;;;;;;7.30;2.80;;;;;;;25.77;38.95;98535.42;111969;1216;25130;-77
2021/09/11 10:59:19;;;;;;;7.10;2.90;;;;;;;25.89;38.33;98535.94;111840;1215;22472;-78
2021/09/11 11:02:20;;;;;;;4.00;3.30;;;;;;;25.99;37.29;98532.80;111859;1214;22924;-77
2021/09/11 11:04:47;;;;;;;5.50;2.90;;;;;;;26.05;36.25;98529.36;111930;1212;22469;-77
2021/09/11 11:07:19;;;;;;;4.90;2.80;;;;;;;26.05;35.38;98524.27;111979;1209;25032;-77
2021/09/11 11:10:08;;;;;;;4.20;2.30;;;;;;;26.10;36.17;98524.83;111637;1216;24071;-77
2021/09/11 11:12:40;;;;;;;5.00;2.70;;;;;;;26.19;34.53;98527.18;111824;1214;25205;-77
2021/09/11 11:15:10;;;;;;;4.60;2.70;;;;;;;26.25;33.75;98525.70;111862;1216;23920;-77
2021/09/11 11:17:43;;;;;;;5.40;2.80;;;;;;;26.33;34.25;98520.80;111976;1211;22455;-77
2021/09/11 11:20:12;;;;;;;3.20;2.70;;;;;;;26.45;33.61;98517.52;111769;1210;25123;-77
2021/09/11 11:22:41;;;;;;;4.70;2.20;;;;;;;26.56;33.86;98514.60;111918;1212;22677;-77
2021/09/11 11:25:11;;;;;;;6.90;2.50;;;;;;;26.67;32.90;98516.48;111818;1214;22448;-77
2021/09/11 11:27:52;;;;;;;9.90;2.80;;;;;;;26.74;33.05;98508.86;111778;1216;23737;-76
2021/09/11 11:30:21;;;;;;;6.20;2.10;;;;;;;26.77;32.94;98510.26;111538;1217;25189;-77
2021/09/11 11:33:04;;;;;;;6.50;2.70;;;;;;;26.71;31.48;98509.17;111899;1213;22454;-77
2021/09/11 11:35:39;;;;;;;5.20;2.40;;;;;;;26.69;32.28;98505.61;111740;1217;25150;-76